createdAt,value
2022-11-21T00:01:19.393Z,18.90
2022-11-21T00:03:47.326Z,18.13
2022-11-21T00:06:15.100Z,19.63
2022-11-21T00:08:42.652Z,18.35
2022-11-21T00:11:10.231Z,19.48
2022-11-21T00:13:38.643Z,20.27
2022-11-21T00:16:08.283Z,20.00
2022-11-21T00:18:36.361Z,19.50
2022-11-21T00:21:15.351Z,20.70
2022-11-21T00:23:44.313Z,19.92
2022-11-21T00:26:13.353Z,19.42
2022-11-21T00:28:41.255Z,19.33
2022-11-21T00:31:09.237Z,19.63
2022-11-21T00:33:37.076Z,19.30
2022-11-21T00:36:10.847Z,19.98
2022-11-21T00:38:38.578Z,19.55
2022-11-21T00:41:06.953Z,18.38
2022-11-21T00:43:34.667Z,19.27
2022-11-21T00:46:03.212Z,19.45
2022-11-21T00:48:32.537Z,19.33
2022-11-21T00:51:00.985Z,19.15
2022-11-21T00:53:29.463Z,19.58
2022-11-21T00:55:57.776Z,18.75
2022-11-21T00:58:25.864Z,19.20
2022-11-21T01:01:01.577Z,19.73
2022-11-21T01:03:29.184Z,19.60
2022-11-21T01:06:02.330Z,19.77
2022-11-21T01:08:30.087Z,19.73
2022-11-21T01:11:01.110Z,19.00
2022-11-21T01:13:28.680Z,20.05
2022-11-21T01:15:56.242Z,20.40
2022-11-21T01:18:23.806Z,18.90
2022-11-21T01:20:51.358Z,19.70
2022-11-21T01:23:18.898Z,18.98
2022-11-21T01:25:46.434Z,19.67
2022-11-21T01:28:14.235Z,18.83
2022-11-21T01:30:41.783Z,18.70
2022-11-21T01:33:09.317Z,17.75
2022-11-21T01:35:36.878Z,18.73
2022-11-21T01:38:04.450Z,19.45
2022-11-21T01:40:38.846Z,19.60
2022-11-21T01:43:15.635Z,18.67
2022-11-21T01:45:59.450Z,18.98
2022-11-21T01:48:29.593Z,18.85
2022-11-21T01:51:01.191Z,19.63
2022-11-21T01:53:28.854Z,20.65
2022-11-21T01:55:56.468Z,18.95
2022-11-21T01:58:24.347Z,18.98
2022-11-21T02:00:51.970Z,19.02
2022-11-21T02:03:22.739Z,18.63
2022-11-21T02:05:50.400Z,19.73
2022-11-21T02:08:21.200Z,19.17
2022-11-21T02:10:59.730Z,20.20
2022-11-21T02:13:28.008Z,20.65
2022-11-21T02:15:55.998Z,21.05
2022-11-21T02:18:23.564Z,20.17
2022-11-21T02:20:56.798Z,19.15
2022-11-21T02:23:45.272Z,20.65
2022-11-21T02:26:12.896Z,20.02
2022-11-21T02:28:40.528Z,20.65
2022-11-21T02:31:08.082Z,20.95
2022-11-21T02:33:37.719Z,20.33
2022-11-21T02:36:05.603Z,20.77
2022-11-21T02:38:38.501Z,21.48
2022-11-21T02:41:26.571Z,21.42
2022-11-21T02:44:02.652Z,22.08
2022-11-21T02:46:30.342Z,21.85
2022-11-21T02:48:58.200Z,20.13
2022-11-21T02:51:25.744Z,21.58
2022-11-21T02:53:53.266Z,21.05
2022-11-21T02:56:21.054Z,20.45
2022-11-21T02:58:49.058Z,20.52
2022-11-21T03:01:16.642Z,19.65
2022-11-21T03:03:44.280Z,18.80
2022-11-21T03:06:11.820Z,18.45
2022-11-21T03:08:39.419Z,20.63
2022-11-21T03:11:06.965Z,19.95
2022-11-21T03:13:34.533Z,18.67
2022-11-21T03:16:02.052Z,17.80
2022-11-21T03:18:29.622Z,19.77
2022-11-21T03:20:58.434Z,20.05
2022-11-21T03:23:26.016Z,19.73
2022-11-21T03:25:53.584Z,19.25
2022-11-21T03:28:21.182Z,19.65
2022-11-21T03:30:48.747Z,20.95
2022-11-21T03:33:16.706Z,19.40
2022-11-21T03:35:44.270Z,20.45
2022-11-21T03:38:11.829Z,19.67
2022-11-21T03:40:39.362Z,19.77
2022-11-21T03:43:07.920Z,18.73
2022-11-21T03:45:35.595Z,19.27
2022-11-21T03:48:03.202Z,19.85
2022-11-21T03:50:30.748Z,20.48
2022-11-21T03:52:58.299Z,19.95
2022-11-21T03:55:26.145Z,21.30
2022-11-21T03:57:53.724Z,20.42
2022-11-21T04:00:21.340Z,20.55
2022-11-21T04:02:48.892Z,21.20
2022-11-21T04:05:16.495Z,21.10
2022-11-21T04:07:46.011Z,20.73
2022-11-21T04:10:14.050Z,21.70
2022-11-21T04:12:41.678Z,20.52
2022-11-21T04:15:13.474Z,22.10
2022-11-21T04:17:41.482Z,22.25
2022-11-21T04:20:09.786Z,21.40
2022-11-21T04:22:37.353Z,21.13
2022-11-21T04:25:05.183Z,22.20
2022-11-21T04:27:32.743Z,23.17
2022-11-21T04:30:00.311Z,21.40
2022-11-21T04:32:28.169Z,20.70
2022-11-21T04:34:55.719Z,21.65
2022-11-21T04:37:23.365Z,20.95
2022-11-21T04:39:50.957Z,20.70
2022-11-21T04:42:18.500Z,20.50
2022-11-21T04:44:46.086Z,21.83
2022-11-21T04:47:13.765Z,19.95
2022-11-21T04:49:41.310Z,20.70
2022-11-21T04:52:08.946Z,20.73
2022-11-21T04:54:36.615Z,19.65
2022-11-21T04:57:04.217Z,20.25
2022-11-21T04:59:31.778Z,19.58
2022-11-21T05:01:59.349Z,19.38
2022-11-21T05:04:27.148Z,18.85
2022-11-21T05:06:54.896Z,19.55
2022-11-21T05:09:22.472Z,18.67
2022-11-21T05:12:08.457Z,19.70
2022-11-21T05:14:35.973Z,19.17
2022-11-21T05:17:03.763Z,18.35
2022-11-21T05:19:31.343Z,19.23
2022-11-21T05:21:58.866Z,21.88
2022-11-21T05:24:26.732Z,22.08
2022-11-21T05:26:54.959Z,21.95
2022-11-21T05:29:27.776Z,22.27
2022-11-21T05:31:55.820Z,21.33
2022-11-21T05:34:23.359Z,20.75
2022-11-21T05:36:57.169Z,19.98
2022-11-21T05:39:25.375Z,20.23
2022-11-21T05:41:55.265Z,19.08
2022-11-21T05:44:26.046Z,21.55
2022-11-21T05:46:53.904Z,19.83
2022-11-21T05:49:21.673Z,20.52
2022-11-21T05:51:49.269Z,20.92
2022-11-21T05:54:17.036Z,20.33
2022-11-21T05:56:44.665Z,19.75
2022-11-21T05:59:12.654Z,18.15
2022-11-21T06:01:59.135Z,17.50
2022-11-21T06:04:27.038Z,20.38
2022-11-21T06:06:54.815Z,19.15
2022-11-21T06:09:22.394Z,18.70
2022-11-21T06:11:49.977Z,20.45
2022-11-21T06:14:17.700Z,19.25
2022-11-21T06:16:45.338Z,20.45
2022-11-21T06:19:12.857Z,22.00
2022-11-21T06:21:40.941Z,21.13
2022-11-21T06:24:08.869Z,22.30
2022-11-21T06:26:36.639Z,21.33
2022-11-21T06:29:04.542Z,22.25
2022-11-21T06:31:32.183Z,21.67
2022-11-21T06:34:00.291Z,19.70
2022-11-21T06:36:27.910Z,18.90
2022-11-21T06:38:56.455Z,20.67
2022-11-21T06:41:26.050Z,19.65
2022-11-21T06:43:53.680Z,19.90
2022-11-21T06:46:21.293Z,19.80
2022-11-21T06:48:48.854Z,19.08
2022-11-21T06:51:20.287Z,20.48
2022-11-21T06:53:48.945Z,21.23
2022-11-21T06:56:16.584Z,21.27
2022-11-21T06:58:44.215Z,20.45
2022-11-21T07:01:12.148Z,20.40
2022-11-21T07:03:40.183Z,20.83
2022-11-21T07:06:08.076Z,20.73
2022-11-21T07:08:36.807Z,21.15
2022-11-21T07:13:54.197Z,19.23
2022-11-21T07:16:21.847Z,19.13
2022-11-21T07:18:49.428Z,20.05
2022-11-21T07:21:18.150Z,19.95
2022-11-21T07:23:45.812Z,18.98
2022-11-21T07:26:13.356Z,20.33
2022-11-21T07:28:40.994Z,19.20
2022-11-21T07:31:13.479Z,19.67
2022-11-21T07:33:43.405Z,20.98
2022-11-21T07:36:12.157Z,19.70
2022-11-21T07:38:41.601Z,20.20
2022-11-21T07:41:09.985Z,19.73
2022-11-21T07:43:37.550Z,19.55
2022-11-21T07:46:05.150Z,19.67
2022-11-21T07:48:32.832Z,19.70
2022-11-21T07:51:02.935Z,20.17
2022-11-21T07:53:30.602Z,18.98
2022-11-21T07:55:59.826Z,17.95
2022-11-21T07:58:27.380Z,20.45
2022-11-21T08:00:55.192Z,18.65
2022-11-21T08:03:25.228Z,18.83
2022-11-21T08:05:52.825Z,20.45
2022-11-21T08:08:20.401Z,18.52
2022-11-21T08:10:48.060Z,18.38
2022-11-21T08:13:15.691Z,17.45
2022-11-21T08:15:43.246Z,14.98
2022-11-21T08:18:16.146Z,14.55
2022-11-21T08:20:43.883Z,13.75
2022-11-21T08:23:11.501Z,12.90
2022-11-21T08:25:40.062Z,11.40
2022-11-21T08:28:09.879Z,9.90
2022-11-21T08:30:38.093Z,11.15
2022-11-21T08:33:06.377Z,10.40
2022-11-21T08:35:36.893Z,10.43
2022-11-21T08:38:04.819Z,9.50
2022-11-21T08:40:32.994Z,9.82
2022-11-21T08:43:01.225Z,10.02
2022-11-21T08:45:29.090Z,9.27
2022-11-21T08:47:56.687Z,9.13
2022-11-21T08:50:24.885Z,8.02
2022-11-21T08:52:52.836Z,9.50
2022-11-21T08:55:20.530Z,8.63
2022-11-21T08:57:48.096Z,7.20
2022-11-21T09:00:16.171Z,7.25
2022-11-21T09:02:44.792Z,6.45
2022-11-21T09:05:12.393Z,7.65
2022-11-21T09:07:41.250Z,7.28
2022-11-21T09:10:09.504Z,6.45
2022-11-21T09:12:37.418Z,7.25
2022-11-21T09:15:23.966Z,6.38
2022-11-21T09:18:03.411Z,6.70
2022-11-21T09:20:38.387Z,6.78
2022-11-21T09:23:16.038Z,5.40
2022-11-21T09:25:44.084Z,6.40
2022-11-21T09:28:13.049Z,5.82
2022-11-21T09:30:41.611Z,6.00
2022-11-21T09:33:14.868Z,6.20
2022-11-21T09:35:42.512Z,5.28
2022-11-21T09:38:10.281Z,5.43
2022-11-21T09:40:41.395Z,5.15
2022-11-21T09:43:19.107Z,5.22
2022-11-21T09:45:48.029Z,6.03
2022-11-21T09:48:32.002Z,4.63
2022-11-21T09:51:05.290Z,6.30
2022-11-21T09:53:38.647Z,5.43
2022-11-21T09:56:16.029Z,5.10
2022-11-21T09:58:51.803Z,5.97
2022-11-21T10:01:19.511Z,5.40
2022-11-21T10:03:49.041Z,5.70
2022-11-21T10:06:36.762Z,5.35
2022-11-21T10:09:19.255Z,5.22
2022-11-21T10:12:21.466Z,4.53
2022-11-21T10:14:56.841Z,5.28
2022-11-21T10:17:50.900Z,7.07
2022-11-21T10:20:30.263Z,5.30
2022-11-21T10:23:21.191Z,4.60
2022-11-21T10:26:19.950Z,5.03
2022-11-21T10:28:50.163Z,5.47
2022-11-21T10:31:18.526Z,5.43
2022-11-21T10:33:46.455Z,4.38
2022-11-21T10:36:31.043Z,4.20
2022-11-21T10:39:11.860Z,4.82
2022-11-21T10:41:49.585Z,5.10
2022-11-21T10:44:42.690Z,4.20
2022-11-21T10:47:27.688Z,4.22
2022-11-21T10:50:09.082Z,4.82
2022-11-21T10:52:40.557Z,4.10
2022-11-21T10:55:11.367Z,4.45
2022-11-21T10:57:41.437Z,4.15
2022-11-21T11:00:18.048Z,4.72
2022-11-21T11:03:05.049Z,4.80
2022-11-21T11:05:37.395Z,3.88
2022-11-21T11:08:08.655Z,4.57
2022-11-21T11:11:01.862Z,4.32
2022-11-21T11:13:46.375Z,5.22
2022-11-21T11:16:21.177Z,5.00
2022-11-21T11:18:55.836Z,4.20
2022-11-21T11:21:31.854Z,4.20
2022-11-21T11:24:11.637Z,4.32
2022-11-21T11:26:48.948Z,4.03
2022-11-21T11:29:20.112Z,5.88
2022-11-21T11:32:00.975Z,5.00
2022-11-21T11:34:41.794Z,4.25
2022-11-21T11:37:43.205Z,4.78
2022-11-21T11:40:40.105Z,4.20
2022-11-21T11:43:35.817Z,4.10
2022-11-21T11:46:21.704Z,3.45
2022-11-21T11:49:17.524Z,4.63
2022-11-21T11:51:48.088Z,4.00
2022-11-21T11:54:29.743Z,4.72
2022-11-21T11:56:58.554Z,3.72
2022-11-21T11:59:37.048Z,3.45
2022-11-21T12:02:18.185Z,3.97
2022-11-21T12:05:12.477Z,4.28
2022-11-21T12:08:39.352Z,4.18
2022-11-21T12:11:02.848Z,3.83
2022-11-21T12:13:32.188Z,4.20
2022-11-21T12:16:11.834Z,3.53
2022-11-21T12:19:10.652Z,4.28
2022-11-21T12:21:38.265Z,3.88
2022-11-21T12:24:08.347Z,3.30
2022-11-21T12:26:44.865Z,4.20
2022-11-21T12:29:47.123Z,3.95
2022-11-21T12:33:08.916Z,3.75
2022-11-21T12:36:16.673Z,3.47
2022-11-21T12:38:54.444Z,4.03
2022-11-21T12:41:55.607Z,4.00
2022-11-21T12:44:23.112Z,3.80
2022-11-21T12:47:01.760Z,3.17
2022-11-21T12:50:04.091Z,3.55
2022-11-21T12:53:00.962Z,3.53
2022-11-21T12:55:39.931Z,3.30
2022-11-21T12:58:32.697Z,4.05
2022-11-21T13:01:06.940Z,3.30
2022-11-21T13:03:50.921Z,3.70
2022-11-21T13:06:27.546Z,3.88
2022-11-21T13:08:56.213Z,4.32
2022-11-21T13:11:55.144Z,3.78
2022-11-21T13:14:27.874Z,3.45
2022-11-21T13:17:28.143Z,3.80
2022-11-21T13:20:20.337Z,10.25
2022-11-21T13:22:48.180Z,3.65
2022-11-21T13:25:40.472Z,3.65
2022-11-21T13:28:20.010Z,3.70
2022-11-21T13:30:54.530Z,3.83
2022-11-21T13:33:46.022Z,4.03
2022-11-21T13:36:35.037Z,5.38
2022-11-21T13:39:03.545Z,4.03
2022-11-21T13:41:56.013Z,4.07
2022-11-21T13:44:32.944Z,3.80
2022-11-21T13:47:05.242Z,3.78
2022-11-21T13:50:00.194Z,3.90
2022-11-21T13:52:36.698Z,5.10
2022-11-21T13:55:35.809Z,4.05
2022-11-21T13:58:15.609Z,4.07
2022-11-21T14:01:21.485Z,3.80
2022-11-21T14:04:11.023Z,3.92
2022-11-21T14:06:43.606Z,3.58
2022-11-21T14:09:24.034Z,5.30
2022-11-21T14:11:58.667Z,4.50
2022-11-21T14:14:30.470Z,3.50
2022-11-21T14:17:06.745Z,4.35
2022-11-21T14:19:34.796Z,3.88
2022-11-21T14:22:02.361Z,3.42
2022-11-21T14:24:30.768Z,3.83
2022-11-21T14:26:59.008Z,3.80
2022-11-21T14:29:39.427Z,3.80
2022-11-21T14:32:14.982Z,3.58
2022-11-21T14:34:42.776Z,3.85
2022-11-21T14:37:13.870Z,3.53
2022-11-21T14:39:44.755Z,3.67
2022-11-21T14:42:16.837Z,3.88
2022-11-21T14:44:44.936Z,3.78
2022-11-21T14:47:25.890Z,3.42
2022-11-21T14:49:57.010Z,3.97
2022-11-21T14:52:29.386Z,3.50
2022-11-21T14:55:28.599Z,3.83
2022-11-21T14:57:47.019Z,4.25
2022-11-21T15:03:04.867Z,3.63
2022-11-21T15:06:00.731Z,3.70
2022-11-21T15:09:14.868Z,4.15
2022-11-21T15:11:13.689Z,4.03
2022-11-21T15:14:06.727Z,3.33
2022-11-21T15:16:29.623Z,3.78
2022-11-21T15:18:57.501Z,3.70
2022-11-21T15:21:25.113Z,3.65
2022-11-21T15:23:56.271Z,3.10
2022-11-21T15:26:31.946Z,2.92
2022-11-21T15:29:00.812Z,3.38
2022-11-21T15:31:29.320Z,3.08
2022-11-21T15:34:33.655Z,3.22
2022-11-21T15:37:05.332Z,3.38
2022-11-21T15:39:33.871Z,3.08
2022-11-21T15:42:29.685Z,3.28
2022-11-21T15:45:01.963Z,3.58
2022-11-21T15:47:29.654Z,3.80
2022-11-21T15:49:57.233Z,3.58
2022-11-21T15:52:24.903Z,3.58
2022-11-21T15:54:52.494Z,3.50
2022-11-21T15:57:21.939Z,3.20
2022-11-21T15:59:50.062Z,3.25
2022-11-21T16:02:17.607Z,3.20
2022-11-21T16:04:45.576Z,3.30
2022-11-21T16:07:13.168Z,3.80
2022-11-21T16:09:42.089Z,3.95
2022-11-21T16:12:10.008Z,3.45
2022-11-21T16:14:37.599Z,3.60
2022-11-21T16:17:05.211Z,3.28
2022-11-21T16:19:32.972Z,3.00
2022-11-21T16:22:00.513Z,3.22
2022-11-21T16:24:28.076Z,2.92
2022-11-21T16:26:57.134Z,3.10
2022-11-21T16:29:24.864Z,2.90
2022-11-21T16:31:53.304Z,2.97
2022-11-21T16:34:21.411Z,3.10
2022-11-21T16:36:50.557Z,3.33
2022-11-21T16:39:18.776Z,3.17
2022-11-21T16:41:47.872Z,3.10
2022-11-21T16:44:16.469Z,3.63
2022-11-21T16:46:47.349Z,3.75
2022-11-21T16:49:14.994Z,3.30
2022-11-21T16:51:42.563Z,3.05
2022-11-21T16:54:10.148Z,3.30
2022-11-21T16:56:38.180Z,3.10
2022-11-21T16:59:05.976Z,3.50
2022-11-21T17:01:33.731Z,3.28
2022-11-21T17:04:01.346Z,3.10
2022-11-21T17:06:30.675Z,3.30
2022-11-21T17:09:00.980Z,3.17
2022-11-21T17:11:31.156Z,3.25
2022-11-21T17:14:04.607Z,3.17
2022-11-21T17:16:32.632Z,3.20
2022-11-21T17:19:01.612Z,3.17
2022-11-21T17:21:30.266Z,3.05
2022-11-21T17:23:58.094Z,3.83
2022-11-21T17:26:27.735Z,3.60
2022-11-21T17:28:57.243Z,3.80
2022-11-21T17:31:25.436Z,3.20
2022-11-21T17:33:54.587Z,3.92
2022-11-21T17:36:24.305Z,3.40
2022-11-21T17:38:52.952Z,3.67
2022-11-21T17:41:21.792Z,3.53
2022-11-21T17:43:49.747Z,3.45
2022-11-21T17:46:18.791Z,3.50
2022-11-21T17:48:54.304Z,3.78
2022-11-21T17:51:25.873Z,3.28
2022-11-21T17:53:54.025Z,3.88
2022-11-21T17:56:23.746Z,3.33
2022-11-21T17:58:52.177Z,3.50
2022-11-21T18:01:20.455Z,3.42
2022-11-21T18:03:53.884Z,3.47
2022-11-21T18:06:21.427Z,4.05
2022-11-21T18:08:50.163Z,3.72
2022-11-21T18:11:23.763Z,3.53
2022-11-21T18:13:51.568Z,3.50
2022-11-21T18:16:22.029Z,4.47
2022-11-21T18:18:50.237Z,3.60
2022-11-21T18:21:20.099Z,3.80
2022-11-21T18:23:47.774Z,3.50
2022-11-21T18:26:26.802Z,3.58
2022-11-21T18:29:20.516Z,3.83
2022-11-21T18:31:46.977Z,3.70
2022-11-21T18:34:14.684Z,12.18
2022-11-21T18:36:42.454Z,10.38
2022-11-21T18:39:14.747Z,12.13
2022-11-21T18:41:43.670Z,9.25
2022-11-21T18:44:14.651Z,8.65
2022-11-21T18:46:44.866Z,4.85
2022-11-21T18:49:12.453Z,5.13
2022-11-21T18:51:40.041Z,4.78
2022-11-21T18:54:10.250Z,3.80
2022-11-21T18:56:38.821Z,4.32
2022-11-21T18:59:06.820Z,3.95
2022-11-21T19:01:36.241Z,3.60
2022-11-21T19:04:04.334Z,3.70
2022-11-21T19:06:32.137Z,3.53
2022-11-21T19:08:59.840Z,3.63
2022-11-21T19:11:29.446Z,4.28
2022-11-21T19:13:57.663Z,3.55
2022-11-21T19:16:27.460Z,3.42
2022-11-21T19:19:26.423Z,3.50
2022-11-21T19:21:43.795Z,4.30
2022-11-21T19:24:15.426Z,3.92
2022-11-21T19:26:43.243Z,3.70
2022-11-21T19:29:11.233Z,3.72
2022-11-21T19:31:44.805Z,3.60
2022-11-21T19:34:14.720Z,3.50
2022-11-21T19:36:43.113Z,3.63
2022-11-21T19:39:10.884Z,3.40
2022-11-21T19:41:38.606Z,3.53
2022-11-21T19:44:06.330Z,3.60
2022-11-21T19:46:35.775Z,3.50
2022-11-21T19:49:03.748Z,3.42
2022-11-21T19:51:36.356Z,3.83
2022-11-21T19:54:05.404Z,3.70
2022-11-21T19:56:33.206Z,3.75
2022-11-21T19:59:00.805Z,3.33
2022-11-21T20:01:30.615Z,3.60
2022-11-21T20:04:03.382Z,3.50
2022-11-21T20:06:33.651Z,3.70
2022-11-21T20:09:07.443Z,3.85
2022-11-21T20:11:35.523Z,4.05
2022-11-21T20:14:03.305Z,3.70
2022-11-21T20:16:39.233Z,3.75
2022-11-21T20:19:12.123Z,3.97
2022-11-21T20:21:39.841Z,4.45
2022-11-21T20:24:07.936Z,4.25
2022-11-21T20:26:36.620Z,4.28
2022-11-21T20:29:05.010Z,3.97
2022-11-21T20:31:34.541Z,3.85
2022-11-21T20:34:05.428Z,4.20
2022-11-21T20:36:34.398Z,4.30
2022-11-21T20:39:21.630Z,4.65
2022-11-21T20:41:49.352Z,4.47
2022-11-21T20:47:07.847Z,4.50
2022-11-21T20:49:35.701Z,4.55
2022-11-21T20:54:50.864Z,4.35
2022-11-21T20:57:18.541Z,4.90
2022-11-21T20:59:46.113Z,4.85
2022-11-21T21:02:14.323Z,4.15
2022-11-21T21:04:42.542Z,4.30
2022-11-21T21:07:10.381Z,4.15
2022-11-21T21:09:38.203Z,4.32
2022-11-21T21:12:06.035Z,4.10
2022-11-21T21:14:33.656Z,4.32
2022-11-21T21:17:01.472Z,4.32
2022-11-21T21:19:29.377Z,4.22
2022-11-21T21:21:57.215Z,4.20
2022-11-21T21:24:24.891Z,3.90
2022-11-21T21:26:52.474Z,4.35
2022-11-21T21:29:21.479Z,4.03
2022-11-21T21:31:51.885Z,4.20
2022-11-21T21:34:21.535Z,3.90
2022-11-21T21:36:49.757Z,4.13
2022-11-21T21:39:17.382Z,3.78
2022-11-21T21:41:46.667Z,4.68
2022-11-21T21:44:15.188Z,3.88
2022-11-21T21:46:42.830Z,4.55
2022-11-21T21:49:10.481Z,4.60
2022-11-21T21:51:38.580Z,4.10
2022-11-21T21:54:09.163Z,4.15
2022-11-21T21:56:36.738Z,4.10
2022-11-21T21:59:04.392Z,3.92
2022-11-21T22:01:32.999Z,4.40
2022-11-21T22:04:05.089Z,4.65
2022-11-21T22:06:36.254Z,4.65
2022-11-21T22:09:04.377Z,4.22
2022-11-21T22:11:35.837Z,3.90
2022-11-21T22:14:06.111Z,4.00
2022-11-21T22:16:34.008Z,4.30
2022-11-21T22:19:01.724Z,4.20
2022-11-21T22:21:34.626Z,4.68
2022-11-21T22:26:52.295Z,3.95
2022-11-21T22:29:19.922Z,3.50
2022-11-21T22:31:47.547Z,4.40
2022-11-21T22:34:15.162Z,3.70
2022-11-21T22:36:43.352Z,3.80
2022-11-21T22:39:10.946Z,4.10
2022-11-21T22:41:38.517Z,3.70
2022-11-21T22:44:06.595Z,3.80
2022-11-21T22:46:34.230Z,3.80
2022-11-21T22:49:01.799Z,3.40
2022-11-21T22:51:30.171Z,4.07
2022-11-21T22:53:58.225Z,3.90
2022-11-21T22:56:26.540Z,3.55
2022-11-21T22:58:54.401Z,3.95
2022-11-21T23:01:24.634Z,3.60
2022-11-21T23:03:52.857Z,3.58
2022-11-21T23:06:26.055Z,4.03
2022-11-21T23:08:55.875Z,3.92
2022-11-21T23:11:28.717Z,3.92
2022-11-21T23:13:56.972Z,4.03
2022-11-21T23:16:25.148Z,3.63
2022-11-21T23:18:53.989Z,3.55
2022-11-21T23:21:23.021Z,3.85
2022-11-21T23:23:50.699Z,3.70
2022-11-21T23:26:18.361Z,4.80
2022-11-21T23:28:45.931Z,3.50
2022-11-21T23:31:13.575Z,3.60
2022-11-21T23:33:41.113Z,3.38
2022-11-21T23:36:08.737Z,4.15
2022-11-21T23:38:36.298Z,4.03
2022-11-21T23:41:04.022Z,4.00
2022-11-21T23:43:31.547Z,3.92
2022-11-21T23:45:59.116Z,3.42
2022-11-21T23:48:27.342Z,3.67
2022-11-21T23:50:54.908Z,3.40
2022-11-21T23:53:22.902Z,4.32
2022-11-21T23:55:50.713Z,3.13
2022-11-21T23:58:18.335Z,3.88
